sensor_id;sensor_type;location;lat;lon;timestamp;P1;durP1;ratioP1;P2;durP2;ratioP2
2225;SDS011;1119;48.288;8.726;2023-12-07T00:02:00;20.92;;;3.42;;
2225;SDS011;1119;48.288;8.726;2023-12-07T00:04:29;20.83;;;3.13;;
2225;SDS011;1119;48.288;8.726;2023-12-07T00:06:56;20.70;;;2.90;;
2225;SDS011;1119;48.288;8.726;2023-12-07T00:09:24;20.70;;;3.30;;
2225;SDS011;1119;48.288;8.726;2023-12-07T00:11:51;20.75;;;3.08;;
2225;SDS011;1119;48.288;8.726;2023-12-07T00:14:18;20.77;;;3.10;;
2225;SDS011;1119;48.288;8.726;2023-12-07T00:16:46;20.95;;;3.50;;
2225;SDS011;1119;48.288;8.726;2023-12-07T00:19:14;20.88;;;3.42;;
2225;SDS011;1119;48.288;8.726;2023-12-07T00:21:41;20.85;;;3.45;;
2225;SDS011;1119;48.288;8.726;2023-12-07T00:24:09;20.77;;;3.28;;
2225;SDS011;1119;48.288;8.726;2023-12-07T00:26:36;21.00;;;3.53;;
2225;SDS011;1119;48.288;8.726;2023-12-07T00:29:04;20.85;;;3.63;;
2225;SDS011;1119;48.288;8.726;2023-12-07T00:31:32;21.02;;;3.88;;
2225;SDS011;1119;48.288;8.726;2023-12-07T00:33:59;20.83;;;3.38;;
2225;SDS011;1119;48.288;8.726;2023-12-07T00:36:29;20.93;;;3.40;;
2225;SDS011;1119;48.288;8.726;2023-12-07T00:38:58;20.95;;;3.40;;
2225;SDS011;1119;48.288;8.726;2023-12-07T00:41:25;20.85;;;3.75;;
2225;SDS011;1119;48.288;8.726;2023-12-07T00:43:53;20.85;;;2.92;;
2225;SDS011;1119;48.288;8.726;2023-12-07T00:46:20;20.80;;;3.20;;
2225;SDS011;1119;48.288;8.726;2023-12-07T00:48:47;20.90;;;3.30;;
2225;SDS011;1119;48.288;8.726;2023-12-07T00:51:14;20.98;;;3.85;;
2225;SDS011;1119;48.288;8.726;2023-12-07T00:53:42;20.85;;;3.75;;
2225;SDS011;1119;48.288;8.726;2023-12-07T00:56:11;21.02;;;3.53;;
2225;SDS011;1119;48.288;8.726;2023-12-07T00:58:38;20.85;;;3.33;;
2225;SDS011;1119;48.288;8.726;2023-12-07T01:01:06;20.85;;;3.40;;
2225;SDS011;1119;48.288;8.726;2023-12-07T01:03:33;20.95;;;3.95;;
2225;SDS011;1119;48.288;8.726;2023-12-07T01:06:00;20.88;;;3.70;;
2225;SDS011;1119;48.288;8.726;2023-12-07T01:08:28;20.85;;;3.33;;
2225;SDS011;1119;48.288;8.726;2023-12-07T01:10:56;21.00;;;3.47;;
2225;SDS011;1119;48.288;8.726;2023-12-07T01:13:25;21.02;;;3.97;;
2225;SDS011;1119;48.288;8.726;2023-12-07T01:15:52;20.92;;;3.40;;
2225;SDS011;1119;48.288;8.726;2023-12-07T01:18:20;20.92;;;3.45;;
2225;SDS011;1119;48.288;8.726;2023-12-07T01:20:47;21.02;;;4.00;;
2225;SDS011;1119;48.288;8.726;2023-12-07T01:23:15;20.88;;;3.63;;
2225;SDS011;1119;48.288;8.726;2023-12-07T01:25:43;20.92;;;3.60;;
2225;SDS011;1119;48.288;8.726;2023-12-07T01:28:10;21.00;;;3.67;;
2225;SDS011;1119;48.288;8.726;2023-12-07T01:30:39;20.92;;;3.60;;
2225;SDS011;1119;48.288;8.726;2023-12-07T01:33:06;20.90;;;3.65;;
2225;SDS011;1119;48.288;8.726;2023-12-07T01:35:33;21.00;;;3.80;;
2225;SDS011;1119;48.288;8.726;2023-12-07T01:38:01;20.75;;;3.80;;
2225;SDS011;1119;48.288;8.726;2023-12-07T01:40:28;21.00;;;4.07;;
2225;SDS011;1119;48.288;8.726;2023-12-07T01:42:56;20.80;;;3.40;;
2225;SDS011;1119;48.288;8.726;2023-12-07T01:45:23;20.95;;;3.90;;
2225;SDS011;1119;48.288;8.726;2023-12-07T01:47:51;20.75;;;3.60;;
2225;SDS011;1119;48.288;8.726;2023-12-07T01:50:22;20.75;;;3.80;;
2225;SDS011;1119;48.288;8.726;2023-12-07T01:52:51;20.92;;;3.50;;
2225;SDS011;1119;48.288;8.726;2023-12-07T01:55:22;21.00;;;3.90;;
2225;SDS011;1119;48.288;8.726;2023-12-07T01:57:51;21.00;;;3.85;;
2225;SDS011;1119;48.288;8.726;2023-12-07T02:00:19;20.85;;;3.50;;
2225;SDS011;1119;48.288;8.726;2023-12-07T02:02:46;20.80;;;3.55;;
2225;SDS011;1119;48.288;8.726;2023-12-07T02:05:15;20.92;;;3.80;;
2225;SDS011;1119;48.288;8.726;2023-12-07T02:07:43;20.80;;;3.70;;
2225;SDS011;1119;48.288;8.726;2023-12-07T02:10:10;20.88;;;3.75;;
2225;SDS011;1119;48.288;8.726;2023-12-07T02:12:38;20.83;;;3.40;;
2225;SDS011;1119;48.288;8.726;2023-12-07T02:15:06;20.95;;;3.83;;
2225;SDS011;1119;48.288;8.726;2023-12-07T02:17:38;20.92;;;3.65;;
2225;SDS011;1119;48.288;8.726;2023-12-07T02:20:17;20.73;;;3.35;;
2225;SDS011;1119;48.288;8.726;2023-12-07T02:22:53;20.75;;;3.20;;
2225;SDS011;1119;48.288;8.726;2023-12-07T02:25:23;20.92;;;3.60;;
2225;SDS011;1119;48.288;8.726;2023-12-07T02:27:57;20.88;;;3.58;;
2225;SDS011;1119;48.288;8.726;2023-12-07T02:30:24;20.80;;;3.33;;
2225;SDS011;1119;48.288;8.726;2023-12-07T02:32:52;20.73;;;3.22;;
2225;SDS011;1119;48.288;8.726;2023-12-07T02:35:19;20.65;;;3.08;;
2225;SDS011;1119;48.288;8.726;2023-12-07T02:37:48;20.85;;;3.03;;
2225;SDS011;1119;48.288;8.726;2023-12-07T02:40:17;20.85;;;3.47;;
2225;SDS011;1119;48.288;8.726;2023-12-07T02:42:51;20.80;;;3.33;;
2225;SDS011;1119;48.288;8.726;2023-12-07T02:45:21;20.88;;;3.28;;
2225;SDS011;1119;48.288;8.726;2023-12-07T02:47:51;20.92;;;3.60;;
2225;SDS011;1119;48.288;8.726;2023-12-07T02:50:18;20.65;;;3.28;;
2225;SDS011;1119;48.288;8.726;2023-12-07T02:52:46;20.77;;;3.13;;
2225;SDS011;1119;48.288;8.726;2023-12-07T02:55:13;20.95;;;3.50;;
2225;SDS011;1119;48.288;8.726;2023-12-07T02:57:40;20.75;;;3.15;;
2225;SDS011;1119;48.288;8.726;2023-12-07T03:03:18;20.65;;;2.75;;
2225;SDS011;1119;48.288;8.726;2023-12-07T03:05:46;20.63;;;2.90;;
2225;SDS011;1119;48.288;8.726;2023-12-07T03:08:13;20.80;;;3.30;;
2225;SDS011;1119;48.288;8.726;2023-12-07T03:10:40;20.70;;;2.80;;
2225;SDS011;1119;48.288;8.726;2023-12-07T03:13:08;20.73;;;2.90;;
2225;SDS011;1119;48.288;8.726;2023-12-07T03:15:35;20.65;;;3.13;;
2225;SDS011;1119;48.288;8.726;2023-12-07T03:18:03;20.45;;;2.92;;
2225;SDS011;1119;48.288;8.726;2023-12-07T03:20:32;20.85;;;3.20;;
2225;SDS011;1119;48.288;8.726;2023-12-07T03:23:00;20.77;;;3.35;;
2225;SDS011;1119;48.288;8.726;2023-12-07T03:25:27;20.83;;;3.20;;
2225;SDS011;1119;48.288;8.726;2023-12-07T03:27:54;20.70;;;3.00;;
2225;SDS011;1119;48.288;8.726;2023-12-07T03:30:22;20.90;;;3.30;;
2225;SDS011;1119;48.288;8.726;2023-12-07T03:32:49;20.65;;;2.70;;
2225;SDS011;1119;48.288;8.726;2023-12-07T03:35:16;20.73;;;2.80;;
2225;SDS011;1119;48.288;8.726;2023-12-07T03:37:45;20.58;;;3.10;;
2225;SDS011;1119;48.288;8.726;2023-12-07T03:40:12;20.48;;;2.70;;
2225;SDS011;1119;48.288;8.726;2023-12-07T03:42:40;20.60;;;2.72;;
2225;SDS011;1119;48.288;8.726;2023-12-07T03:45:07;20.75;;;3.08;;
2225;SDS011;1119;48.288;8.726;2023-12-07T03:52:09;20.67;;;2.80;;
2225;SDS011;1119;48.288;8.726;2023-12-07T03:54:38;20.73;;;2.72;;
2225;SDS011;1119;48.288;8.726;2023-12-07T03:57:05;20.80;;;2.85;;
2225;SDS011;1119;48.288;8.726;2023-12-07T03:59:35;20.73;;;2.90;;
2225;SDS011;1119;48.288;8.726;2023-12-07T04:02:03;20.65;;;2.90;;
2225;SDS011;1119;48.288;8.726;2023-12-07T04:04:30;20.73;;;2.80;;
2225;SDS011;1119;48.288;8.726;2023-12-07T04:07:00;20.73;;;2.72;;
2225;SDS011;1119;48.288;8.726;2023-12-07T04:09:28;20.80;;;2.78;;
2225;SDS011;1119;48.288;8.726;2023-12-07T04:11:57;20.65;;;2.70;;
2225;SDS011;1119;48.288;8.726;2023-12-07T04:14:24;20.70;;;2.88;;
2225;SDS011;1119;48.288;8.726;2023-12-07T04:16:52;20.77;;;2.90;;
2225;SDS011;1119;48.288;8.726;2023-12-07T04:19:19;20.75;;;2.65;;
2225;SDS011;1119;48.288;8.726;2023-12-07T04:21:47;20.88;;;3.30;;
2225;SDS011;1119;48.288;8.726;2023-12-07T04:24:14;20.90;;;3.03;;
2225;SDS011;1119;48.288;8.726;2023-12-07T04:26:41;21.00;;;3.22;;
2225;SDS011;1119;48.288;8.726;2023-12-07T04:29:10;20.90;;;2.83;;
2225;SDS011;1119;48.288;8.726;2023-12-07T04:31:37;20.83;;;3.08;;
2225;SDS011;1119;48.288;8.726;2023-12-07T04:34:05;20.85;;;3.28;;
2225;SDS011;1119;48.288;8.726;2023-12-07T04:36:35;20.80;;;2.90;;
2225;SDS011;1119;48.288;8.726;2023-12-07T04:39:03;20.65;;;3.08;;
2225;SDS011;1119;48.288;8.726;2023-12-07T04:41:32;21.00;;;3.38;;
2225;SDS011;1119;48.288;8.726;2023-12-07T04:43:59;20.92;;;3.20;;
2225;SDS011;1119;48.288;8.726;2023-12-07T04:46:28;20.85;;;2.97;;
2225;SDS011;1119;48.288;8.726;2023-12-07T04:48:55;20.75;;;3.05;;
2225;SDS011;1119;48.288;8.726;2023-12-07T04:51:25;20.85;;;3.33;;
2225;SDS011;1119;48.288;8.726;2023-12-07T04:53:52;21.05;;;3.22;;
2225;SDS011;1119;48.288;8.726;2023-12-07T04:56:19;20.98;;;3.10;;
2225;SDS011;1119;48.288;8.726;2023-12-07T04:58:49;21.10;;;3.30;;
2225;SDS011;1119;48.288;8.726;2023-12-07T05:01:16;21.02;;;3.25;;
2225;SDS011;1119;48.288;8.726;2023-12-07T05:03:45;21.02;;;3.28;;
2225;SDS011;1119;48.288;8.726;2023-12-07T05:06:12;21.08;;;3.30;;
2225;SDS011;1119;48.288;8.726;2023-12-07T05:08:40;20.88;;;3.10;;
2225;SDS011;1119;48.288;8.726;2023-12-07T05:11:08;21.02;;;3.13;;
2225;SDS011;1119;48.288;8.726;2023-12-07T05:13:36;21.08;;;3.00;;
2225;SDS011;1119;48.288;8.726;2023-12-07T05:16:03;20.90;;;3.10;;
2225;SDS011;1119;48.288;8.726;2023-12-07T05:18:31;20.95;;;3.25;;
2225;SDS011;1119;48.288;8.726;2023-12-07T05:20:59;20.92;;;3.30;;
2225;SDS011;1119;48.288;8.726;2023-12-07T05:23:27;20.90;;;3.05;;
2225;SDS011;1119;48.288;8.726;2023-12-07T05:25:54;21.05;;;3.65;;
2225;SDS011;1119;48.288;8.726;2023-12-07T05:28:21;21.10;;;3.38;;
2225;SDS011;1119;48.288;8.726;2023-12-07T05:30:49;20.98;;;3.25;;
2225;SDS011;1119;48.288;8.726;2023-12-07T05:33:16;21.02;;;3.40;;
2225;SDS011;1119;48.288;8.726;2023-12-07T05:35:45;21.15;;;3.42;;
2225;SDS011;1119;48.288;8.726;2023-12-07T05:38:14;21.08;;;3.38;;
2225;SDS011;1119;48.288;8.726;2023-12-07T05:40:42;21.10;;;3.72;;
2225;SDS011;1119;48.288;8.726;2023-12-07T05:43:09;20.95;;;3.13;;
2225;SDS011;1119;48.288;8.726;2023-12-07T05:45:36;21.05;;;3.20;;
2225;SDS011;1119;48.288;8.726;2023-12-07T05:48:04;20.90;;;3.17;;
2225;SDS011;1119;48.288;8.726;2023-12-07T05:50:31;21.05;;;3.40;;
2225;SDS011;1119;48.288;8.726;2023-12-07T05:52:58;21.02;;;3.50;;
2225;SDS011;1119;48.288;8.726;2023-12-07T05:55:27;20.90;;;2.75;;
2225;SDS011;1119;48.288;8.726;2023-12-07T05:57:54;21.05;;;3.28;;
2225;SDS011;1119;48.288;8.726;2023-12-07T06:00:21;20.90;;;2.92;;
2225;SDS011;1119;48.288;8.726;2023-12-07T06:02:49;20.83;;;2.97;;
2225;SDS011;1119;48.288;8.726;2023-12-07T06:05:16;20.67;;;2.72;;
2225;SDS011;1119;48.288;8.726;2023-12-07T06:07:44;20.88;;;2.90;;
2225;SDS011;1119;48.288;8.726;2023-12-07T06:10:11;20.85;;;2.90;;
2225;SDS011;1119;48.288;8.726;2023-12-07T06:12:39;20.88;;;2.78;;
2225;SDS011;1119;48.288;8.726;2023-12-07T06:15:08;20.85;;;3.13;;
2225;SDS011;1119;48.288;8.726;2023-12-07T06:17:36;20.95;;;2.88;;
2225;SDS011;1119;48.288;8.726;2023-12-07T06:20:03;20.83;;;2.65;;
2225;SDS011;1119;48.288;8.726;2023-12-07T06:22:32;20.92;;;2.80;;
2225;SDS011;1119;48.288;8.726;2023-12-07T06:24:59;20.95;;;3.05;;
2225;SDS011;1119;48.288;8.726;2023-12-07T06:27:27;20.77;;;2.67;;
2225;SDS011;1119;48.288;8.726;2023-12-07T06:29:55;20.83;;;2.75;;
2225;SDS011;1119;48.288;8.726;2023-12-07T06:32:23;20.65;;;2.90;;
2225;SDS011;1119;48.288;8.726;2023-12-07T06:34:50;20.90;;;2.90;;
2225;SDS011;1119;48.288;8.726;2023-12-07T06:37:18;21.05;;;3.10;;
2225;SDS011;1119;48.288;8.726;2023-12-07T06:39:45;20.95;;;3.15;;
2225;SDS011;1119;48.288;8.726;2023-12-07T06:42:14;20.75;;;2.60;;
2225;SDS011;1119;48.288;8.726;2023-12-07T06:44:42;20.85;;;3.25;;
2225;SDS011;1119;48.288;8.726;2023-12-07T06:47:13;20.95;;;3.05;;
2225;SDS011;1119;48.288;8.726;2023-12-07T06:49:40;21.02;;;3.28;;
2225;SDS011;1119;48.288;8.726;2023-12-07T06:52:08;20.73;;;2.78;;
2225;SDS011;1119;48.288;8.726;2023-12-07T06:54:36;20.95;;;2.85;;
2225;SDS011;1119;48.288;8.726;2023-12-07T06:57:03;20.90;;;2.80;;
2225;SDS011;1119;48.288;8.726;2023-12-07T06:59:32;20.92;;;2.78;;
2225;SDS011;1119;48.288;8.726;2023-12-07T07:01:59;20.83;;;2.80;;
2225;SDS011;1119;48.288;8.726;2023-12-07T07:04:28;20.92;;;2.70;;
2225;SDS011;1119;48.288;8.726;2023-12-07T07:06:56;20.85;;;2.50;;
2225;SDS011;1119;48.288;8.726;2023-12-07T07:09:23;20.70;;;2.38;;
2225;SDS011;1119;48.288;8.726;2023-12-07T07:11:51;20.70;;;2.20;;
2225;SDS011;1119;48.288;8.726;2023-12-07T07:14:19;20.55;;;2.15;;
2225;SDS011;1119;48.288;8.726;2023-12-07T07:16:46;20.63;;;2.20;;
2225;SDS011;1119;48.288;8.726;2023-12-07T07:19:13;20.80;;;2.30;;
2225;SDS011;1119;48.288;8.726;2023-12-07T07:21:43;20.70;;;2.30;;
2225;SDS011;1119;48.288;8.726;2023-12-07T07:24:10;20.80;;;2.38;;
2225;SDS011;1119;48.288;8.726;2023-12-07T07:26:38;20.73;;;2.47;;
2225;SDS011;1119;48.288;8.726;2023-12-07T07:29:06;20.70;;;2.33;;
2225;SDS011;1119;48.288;8.726;2023-12-07T07:31:33;20.80;;;2.30;;
2225;SDS011;1119;48.288;8.726;2023-12-07T07:34:01;20.80;;;2.40;;
2225;SDS011;1119;48.288;8.726;2023-12-07T07:36:29;20.75;;;2.47;;
2225;SDS011;1119;48.288;8.726;2023-12-07T07:38:59;20.88;;;2.50;;
2225;SDS011;1119;48.288;8.726;2023-12-07T07:41:26;20.73;;;2.42;;
2225;SDS011;1119;48.288;8.726;2023-12-07T07:43:53;20.83;;;2.35;;
2225;SDS011;1119;48.288;8.726;2023-12-07T07:46:21;20.75;;;2.40;;
2225;SDS011;1119;48.288;8.726;2023-12-07T07:48:48;20.63;;;2.50;;
2225;SDS011;1119;48.288;8.726;2023-12-07T07:51:16;20.67;;;2.25;;
2225;SDS011;1119;48.288;8.726;2023-12-07T07:53:43;20.63;;;2.25;;
2225;SDS011;1119;48.288;8.726;2023-12-07T07:56:12;20.88;;;2.45;;
2225;SDS011;1119;48.288;8.726;2023-12-07T07:58:39;20.80;;;2.45;;
2225;SDS011;1119;48.288;8.726;2023-12-07T08:01:06;20.75;;;2.42;;
2225;SDS011;1119;48.288;8.726;2023-12-07T08:03:33;20.50;;;2.40;;
2225;SDS011;1119;48.288;8.726;2023-12-07T08:06:01;20.73;;;2.30;;
2225;SDS011;1119;48.288;8.726;2023-12-07T08:08:29;20.75;;;2.20;;
2225;SDS011;1119;48.288;8.726;2023-12-07T08:10:56;20.83;;;2.45;;
2225;SDS011;1119;48.288;8.726;2023-12-07T08:13:25;20.83;;;2.30;;
2225;SDS011;1119;48.288;8.726;2023-12-07T08:15:52;20.70;;;2.35;;
2225;SDS011;1119;48.288;8.726;2023-12-07T08:18:20;20.75;;;2.25;;
2225;SDS011;1119;48.288;8.726;2023-12-07T08:20:47;20.83;;;2.40;;
2225;SDS011;1119;48.288;8.726;2023-12-07T08:23:15;20.83;;;2.50;;
2225;SDS011;1119;48.288;8.726;2023-12-07T08:25:42;20.67;;;2.00;;
2225;SDS011;1119;48.288;8.726;2023-12-07T08:28:10;20.63;;;2.15;;
2225;SDS011;1119;48.288;8.726;2023-12-07T08:30:38;20.88;;;2.50;;
2225;SDS011;1119;48.288;8.726;2023-12-07T08:33:06;20.95;;;2.42;;
2225;SDS011;1119;48.288;8.726;2023-12-07T08:35:33;20.77;;;2.05;;
2225;SDS011;1119;48.288;8.726;2023-12-07T08:38:00;20.90;;;2.10;;
2225;SDS011;1119;48.288;8.726;2023-12-07T08:40:28;20.92;;;2.50;;
2225;SDS011;1119;48.288;8.726;2023-12-07T08:42:55;20.88;;;2.20;;
2225;SDS011;1119;48.288;8.726;2023-12-07T08:45:22;20.85;;;2.45;;
2225;SDS011;1119;48.288;8.726;2023-12-07T08:47:51;20.73;;;2.03;;
2225;SDS011;1119;48.288;8.726;2023-12-07T08:50:18;20.83;;;2.22;;
2225;SDS011;1119;48.288;8.726;2023-12-07T08:52:46;20.83;;;2.40;;
2225;SDS011;1119;48.288;8.726;2023-12-07T08:55:13;20.67;;;2.10;;
2225;SDS011;1119;48.288;8.726;2023-12-07T08:57:42;20.85;;;2.42;;
2225;SDS011;1119;48.288;8.726;2023-12-07T09:00:09;20.92;;;2.42;;
2225;SDS011;1119;48.288;8.726;2023-12-07T09:02:38;20.80;;;2.50;;
2225;SDS011;1119;48.288;8.726;2023-12-07T09:05:07;20.73;;;2.40;;
2225;SDS011;1119;48.288;8.726;2023-12-07T09:07:35;20.83;;;2.30;;
2225;SDS011;1119;48.288;8.726;2023-12-07T09:10:02;20.88;;;2.20;;
2225;SDS011;1119;48.288;8.726;2023-12-07T09:12:32;20.67;;;2.25;;
2225;SDS011;1119;48.288;8.726;2023-12-07T09:15:01;20.70;;;2.22;;
2225;SDS011;1119;48.288;8.726;2023-12-07T09:17:29;20.67;;;2.00;;
2225;SDS011;1119;48.288;8.726;2023-12-07T09:19:56;20.88;;;2.50;;
2225;SDS011;1119;48.288;8.726;2023-12-07T09:22:24;20.83;;;2.30;;
2225;SDS011;1119;48.288;8.726;2023-12-07T09:24:52;20.90;;;2.25;;
2225;SDS011;1119;48.288;8.726;2023-12-07T09:27:19;20.95;;;2.10;;
2225;SDS011;1119;48.288;8.726;2023-12-07T09:29:46;20.83;;;2.25;;
2225;SDS011;1119;48.288;8.726;2023-12-07T09:32:14;20.90;;;2.30;;
2225;SDS011;1119;48.288;8.726;2023-12-07T09:34:41;20.85;;;2.30;;
2225;SDS011;1119;48.288;8.726;2023-12-07T09:37:08;20.75;;;2.22;;
2225;SDS011;1119;48.288;8.726;2023-12-07T09:39:38;20.75;;;2.35;;
2225;SDS011;1119;48.288;8.726;2023-12-07T09:42:05;20.83;;;2.03;;
2225;SDS011;1119;48.288;8.726;2023-12-07T09:44:33;21.00;;;2.35;;
2225;SDS011;1119;48.288;8.726;2023-12-07T09:47:00;20.85;;;2.17;;
2225;SDS011;1119;48.288;8.726;2023-12-07T09:49:27;20.95;;;2.35;;
2225;SDS011;1119;48.288;8.726;2023-12-07T09:51:56;20.95;;;2.25;;
2225;SDS011;1119;48.288;8.726;2023-12-07T09:54:25;20.83;;;2.30;;
2225;SDS011;1119;48.288;8.726;2023-12-07T09:56:55;20.90;;;2.10;;
2225;SDS011;1119;48.288;8.726;2023-12-07T09:59:23;20.92;;;2.40;;
2225;SDS011;1119;48.288;8.726;2023-12-07T10:01:50;20.95;;;2.60;;
2225;SDS011;1119;48.288;8.726;2023-12-07T10:04:18;20.90;;;2.28;;
2225;SDS011;1119;48.288;8.726;2023-12-07T10:06:48;21.00;;;2.55;;
2225;SDS011;1119;48.288;8.726;2023-12-07T10:09:15;20.90;;;2.33;;
2225;SDS011;1119;48.288;8.726;2023-12-07T10:11:44;20.80;;;2.25;;
2225;SDS011;1119;48.288;8.726;2023-12-07T10:14:14;20.70;;;1.95;;
2225;SDS011;1119;48.288;8.726;2023-12-07T10:16:51;20.85;;;2.30;;
2225;SDS011;1119;48.288;8.726;2023-12-07T10:19:20;20.83;;;2.40;;
2225;SDS011;1119;48.288;8.726;2023-12-07T10:21:49;20.75;;;2.28;;
2225;SDS011;1119;48.288;8.726;2023-12-07T10:24:17;20.75;;;2.05;;
2225;SDS011;1119;48.288;8.726;2023-12-07T10:26:45;20.75;;;2.35;;
2225;SDS011;1119;48.288;8.726;2023-12-07T10:29:16;20.90;;;2.50;;
2225;SDS011;1119;48.288;8.726;2023-12-07T10:31:45;20.83;;;2.10;;
2225;SDS011;1119;48.288;8.726;2023-12-07T10:34:13;20.60;;;2.13;;
2225;SDS011;1119;48.288;8.726;2023-12-07T10:36:45;20.60;;;2.20;;
2225;SDS011;1119;48.288;8.726;2023-12-07T10:39:14;20.90;;;2.23;;
2225;SDS011;1119;48.288;8.726;2023-12-07T10:41:42;20.77;;;2.00;;
2225;SDS011;1119;48.288;8.726;2023-12-07T10:44:11;20.80;;;2.17;;
2225;SDS011;1119;48.288;8.726;2023-12-07T10:46:42;20.90;;;2.30;;
2225;SDS011;1119;48.288;8.726;2023-12-07T10:49:11;20.80;;;2.20;;
2225;SDS011;1119;48.288;8.726;2023-12-07T10:51:45;21.00;;;2.27;;
2225;SDS011;1119;48.288;8.726;2023-12-07T10:54:18;20.73;;;2.50;;
2225;SDS011;1119;48.288;8.726;2023-12-07T10:56:50;20.90;;;2.10;;
2225;SDS011;1119;48.288;8.726;2023-12-07T10:59:19;20.93;;;2.47;;
2225;SDS011;1119;48.288;8.726;2023-12-07T11:01:49;21.00;;;2.60;;
2225;SDS011;1119;48.288;8.726;2023-12-07T11:04:19;20.70;;;2.13;;
2225;SDS011;1119;48.288;8.726;2023-12-07T11:06:47;20.90;;;2.20;;
2225;SDS011;1119;48.288;8.726;2023-12-07T11:09:19;20.88;;;2.40;;
2225;SDS011;1119;48.288;8.726;2023-12-07T11:11:52;20.98;;;2.05;;
2225;SDS011;1119;48.288;8.726;2023-12-07T11:14:27;20.83;;;2.13;;
2225;SDS011;1119;48.288;8.726;2023-12-07T11:16:55;20.87;;;2.40;;
2225;SDS011;1119;48.288;8.726;2023-12-07T11:22:15;20.98;;;2.50;;
2225;SDS011;1119;48.288;8.726;2023-12-07T11:24:51;20.92;;;1.98;;
2225;SDS011;1119;48.288;8.726;2023-12-07T11:27:21;20.90;;;2.40;;
2225;SDS011;1119;48.288;8.726;2023-12-07T11:29:50;20.95;;;2.35;;
2225;SDS011;1119;48.288;8.726;2023-12-07T11:32:18;20.93;;;2.40;;
2225;SDS011;1119;48.288;8.726;2023-12-07T11:34:45;20.90;;;2.27;;
2225;SDS011;1119;48.288;8.726;2023-12-07T11:37:14;21.00;;;2.40;;
2225;SDS011;1119;48.288;8.726;2023-12-07T11:39:42;20.80;;;2.30;;
2225;SDS011;1119;48.288;8.726;2023-12-07T11:42:12;20.87;;;2.20;;
2225;SDS011;1119;48.288;8.726;2023-12-07T11:44:42;20.90;;;2.23;;
2225;SDS011;1119;48.288;8.726;2023-12-07T11:47:15;20.70;;;2.13;;
2225;SDS011;1119;48.288;8.726;2023-12-07T11:49:43;20.77;;;1.87;;
2225;SDS011;1119;48.288;8.726;2023-12-07T11:52:12;20.80;;;1.93;;
2225;SDS011;1119;48.288;8.726;2023-12-07T11:54:43;21.00;;;2.30;;
2225;SDS011;1119;48.288;8.726;2023-12-07T11:57:11;20.87;;;2.30;;
2225;SDS011;1119;48.288;8.726;2023-12-07T11:59:39;20.80;;;2.10;;
2225;SDS011;1119;48.288;8.726;2023-12-07T12:02:10;20.83;;;2.10;;
2225;SDS011;1119;48.288;8.726;2023-12-07T12:04:39;20.83;;;2.27;;
2225;SDS011;1119;48.288;8.726;2023-12-07T12:07:07;20.90;;;2.00;;
2225;SDS011;1119;48.288;8.726;2023-12-07T12:09:34;20.77;;;1.97;;
2225;SDS011;1119;48.288;8.726;2023-12-07T12:12:01;20.87;;;2.20;;
2225;SDS011;1119;48.288;8.726;2023-12-07T12:14:29;20.93;;;2.27;;
2225;SDS011;1119;48.288;8.726;2023-12-07T12:16:56;20.90;;;2.00;;
2225;SDS011;1119;48.288;8.726;2023-12-07T12:19:24;20.97;;;2.10;;
2225;SDS011;1119;48.288;8.726;2023-12-07T12:21:53;20.80;;;1.93;;
2225;SDS011;1119;48.288;8.726;2023-12-07T12:24:21;20.97;;;2.30;;
2225;SDS011;1119;48.288;8.726;2023-12-07T12:26:48;20.77;;;2.20;;
2225;SDS011;1119;48.288;8.726;2023-12-07T12:29:16;20.90;;;2.20;;
2225;SDS011;1119;48.288;8.726;2023-12-07T12:31:44;21.00;;;2.40;;
2225;SDS011;1119;48.288;8.726;2023-12-07T12:34:11;21.03;;;2.27;;
2225;SDS011;1119;48.288;8.726;2023-12-07T12:36:38;21.00;;;2.17;;
2225;SDS011;1119;48.288;8.726;2023-12-07T12:39:07;20.80;;;2.10;;
2225;SDS011;1119;48.288;8.726;2023-12-07T12:41:35;20.87;;;2.10;;
2225;SDS011;1119;48.288;8.726;2023-12-07T12:44:04;20.80;;;1.87;;
2225;SDS011;1119;48.288;8.726;2023-12-07T12:46:33;20.90;;;2.17;;
2225;SDS011;1119;48.288;8.726;2023-12-07T12:49:02;20.90;;;1.90;;
2225;SDS011;1119;48.288;8.726;2023-12-07T12:51:30;20.90;;;2.10;;
2225;SDS011;1119;48.288;8.726;2023-12-07T12:53:58;20.97;;;2.00;;
2225;SDS011;1119;48.288;8.726;2023-12-07T12:56:27;21.03;;;2.10;;
2225;SDS011;1119;48.288;8.726;2023-12-07T12:58:55;20.97;;;2.30;;
2225;SDS011;1119;48.288;8.726;2023-12-07T13:01:22;20.90;;;1.80;;
2225;SDS011;1119;48.288;8.726;2023-12-07T13:03:50;21.00;;;2.00;;
2225;SDS011;1119;48.288;8.726;2023-12-07T13:06:17;20.93;;;2.30;;
2225;SDS011;1119;48.288;8.726;2023-12-07T13:08:45;20.98;;;2.33;;
2225;SDS011;1119;48.288;8.726;2023-12-07T13:11:17;21.10;;;2.43;;
2225;SDS011;1119;48.288;8.726;2023-12-07T13:13:47;20.90;;;2.20;;
2225;SDS011;1119;48.288;8.726;2023-12-07T13:16:14;20.90;;;2.30;;
2225;SDS011;1119;48.288;8.726;2023-12-07T13:18:42;21.17;;;2.55;;
2225;SDS011;1119;48.288;8.726;2023-12-07T13:21:09;21.00;;;2.10;;
2225;SDS011;1119;48.288;8.726;2023-12-07T13:23:37;20.97;;;2.13;;
2225;SDS011;1119;48.288;8.726;2023-12-07T13:26:04;20.80;;;2.20;;
2225;SDS011;1119;48.288;8.726;2023-12-07T13:28:32;20.90;;;2.17;;
2225;SDS011;1119;48.288;8.726;2023-12-07T13:31:01;20.80;;;2.27;;
2225;SDS011;1119;48.288;8.726;2023-12-07T13:33:28;20.80;;;2.03;;
2225;SDS011;1119;48.288;8.726;2023-12-07T13:35:56;20.90;;;2.20;;
2225;SDS011;1119;48.288;8.726;2023-12-07T13:38:26;20.93;;;2.20;;
2225;SDS011;1119;48.288;8.726;2023-12-07T13:40:55;21.03;;;2.40;;
2225;SDS011;1119;48.288;8.726;2023-12-07T13:43:22;20.80;;;2.30;;
2225;SDS011;1119;48.288;8.726;2023-12-07T13:45:50;20.90;;;2.03;;
2225;SDS011;1119;48.288;8.726;2023-12-07T13:48:19;20.90;;;2.30;;
2225;SDS011;1119;48.288;8.726;2023-12-07T13:50:47;20.93;;;1.90;;
2225;SDS011;1119;48.288;8.726;2023-12-07T13:53:15;20.87;;;1.83;;
2225;SDS011;1119;48.288;8.726;2023-12-07T13:55:44;20.90;;;2.20;;
2225;SDS011;1119;48.288;8.726;2023-12-07T13:58:12;20.97;;;2.20;;
2225;SDS011;1119;48.288;8.726;2023-12-07T14:00:39;20.73;;;2.03;;
2225;SDS011;1119;48.288;8.726;2023-12-07T14:03:10;20.87;;;2.20;;
2225;SDS011;1119;48.288;8.726;2023-12-07T14:05:39;20.83;;;2.20;;
2225;SDS011;1119;48.288;8.726;2023-12-07T14:08:06;20.87;;;2.23;;
2225;SDS011;1119;48.288;8.726;2023-12-07T14:10:34;20.97;;;2.20;;
2225;SDS011;1119;48.288;8.726;2023-12-07T14:13:04;20.90;;;2.17;;
2225;SDS011;1119;48.288;8.726;2023-12-07T14:15:32;20.93;;;2.17;;
2225;SDS011;1119;48.288;8.726;2023-12-07T14:18:00;20.80;;;2.07;;
2225;SDS011;1119;48.288;8.726;2023-12-07T14:20:28;20.97;;;2.30;;
2225;SDS011;1119;48.288;8.726;2023-12-07T14:22:58;20.83;;;2.00;;
2225;SDS011;1119;48.288;8.726;2023-12-07T14:25:29;20.80;;;2.47;;
2225;SDS011;1119;48.288;8.726;2023-12-07T14:27:56;20.90;;;2.27;;
2225;SDS011;1119;48.288;8.726;2023-12-07T14:30:24;20.90;;;2.60;;
2225;SDS011;1119;48.288;8.726;2023-12-07T14:32:51;20.90;;;2.50;;
2225;SDS011;1119;48.288;8.726;2023-12-07T14:35:18;20.87;;;2.00;;
2225;SDS011;1119;48.288;8.726;2023-12-07T14:37:45;20.85;;;2.20;;
2225;SDS011;1119;48.288;8.726;2023-12-07T14:40:15;20.80;;;2.50;;
2225;SDS011;1119;48.288;8.726;2023-12-07T14:42:43;20.90;;;2.30;;
2225;SDS011;1119;48.288;8.726;2023-12-07T14:45:11;20.80;;;2.17;;
2225;SDS011;1119;48.288;8.726;2023-12-07T14:47:40;20.83;;;2.23;;
2225;SDS011;1119;48.288;8.726;2023-12-07T14:50:07;20.80;;;2.23;;
2225;SDS011;1119;48.288;8.726;2023-12-07T14:52:36;20.90;;;2.30;;
2225;SDS011;1119;48.288;8.726;2023-12-07T14:55:03;20.97;;;2.20;;
2225;SDS011;1119;48.288;8.726;2023-12-07T14:57:35;20.97;;;2.37;;
2225;SDS011;1119;48.288;8.726;2023-12-07T15:00:02;20.90;;;2.27;;
2225;SDS011;1119;48.288;8.726;2023-12-07T15:02:32;20.85;;;2.20;;
2225;SDS011;1119;48.288;8.726;2023-12-07T15:05:00;21.10;;;2.60;;
2225;SDS011;1119;48.288;8.726;2023-12-07T15:07:30;20.92;;;2.10;;
2225;SDS011;1119;48.288;8.726;2023-12-07T15:09:58;21.00;;;2.40;;
2225;SDS011;1119;48.288;8.726;2023-12-07T15:12:25;20.95;;;2.50;;
2225;SDS011;1119;48.288;8.726;2023-12-07T15:14:54;21.00;;;2.30;;
2225;SDS011;1119;48.288;8.726;2023-12-07T15:17:23;21.00;;;2.10;;